sensor_id;sensor_type;location;lat;lon;timestamp;temperature;humidity
16578;DHT22;8401;52.528;13.340;2022-11-21T00:00:56;0.70;1.00
16578;DHT22;8401;52.528;13.340;2022-11-21T00:03:22;0.80;10.70
16578;DHT22;8401;52.528;13.340;2022-11-21T00:05:49;0.90;1.00
16578;DHT22;8401;52.528;13.340;2022-11-21T00:08:19;0.80;1.00
16578;DHT22;8401;52.528;13.340;2022-11-21T00:10:45;0.90;1.00
16578;DHT22;8401;52.528;13.340;2022-11-21T00:13:14;0.60;1.00
16578;DHT22;8401;52.528;13.340;2022-11-21T00:15:40;0.90;1.00
16578;DHT22;8401;52.528;13.340;2022-11-21T00:18:05;1.00;1.00
16578;DHT22;8401;52.528;13.340;2022-11-21T00:20:31;1.00;1.00
16578;DHT22;8401;52.528;13.340;2022-11-21T00:22:57;1.10;1.00
16578;DHT22;8401;52.528;13.340;2022-11-21T00:25:23;0.90;1.00
16578;DHT22;8401;52.528;13.340;2022-11-21T00:27:48;0.80;1.00
16578;DHT22;8401;52.528;13.340;2022-11-21T00:30:14;1.00;1.00
16578;DHT22;8401;52.528;13.340;2022-11-21T00:32:40;1.00;1.00
16578;DHT22;8401;52.528;13.340;2022-11-21T00:35:05;0.80;1.00
16578;DHT22;8401;52.528;13.340;2022-11-21T00:37:32;0.60;1.00
16578;DHT22;8401;52.528;13.340;2022-11-21T00:39:57;0.40;1.40
16578;DHT22;8401;52.528;13.340;2022-11-21T00:42:23;0.40;25.10
16578;DHT22;8401;52.528;13.340;2022-11-21T00:44:49;0.60;11.30
16578;DHT22;8401;52.528;13.340;2022-11-21T00:47:14;0.50;6.40
16578;DHT22;8401;52.528;13.340;2022-11-21T00:49:40;0.40;21.70
16578;DHT22;8401;52.528;13.340;2022-11-21T00:52:06;0.40;27.80
16578;DHT22;8401;52.528;13.340;2022-11-21T00:54:31;0.40;29.50
16578;DHT22;8401;52.528;13.340;2022-11-21T00:56:57;0.40;31.80
16578;DHT22;8401;52.528;13.340;2022-11-21T00:59:22;0.60;40.00
16578;DHT22;8401;52.528;13.340;2022-11-21T01:01:48;0.50;10.90
16578;DHT22;8401;52.528;13.340;2022-11-21T01:04:14;0.50;27.10
16578;DHT22;8401;52.528;13.340;2022-11-21T01:06:39;0.50;25.50
16578;DHT22;8401;52.528;13.340;2022-11-21T01:09:05;0.50;27.70
16578;DHT22;8401;52.528;13.340;2022-11-21T01:11:31;0.50;38.70
16578;DHT22;8401;52.528;13.340;2022-11-21T01:13:57;0.50;43.00
16578;DHT22;8401;52.528;13.340;2022-11-21T01:16:24;0.60;31.90
16578;DHT22;8401;52.528;13.340;2022-11-21T01:18:50;0.50;39.00
16578;DHT22;8401;52.528;13.340;2022-11-21T01:21:25;0.80;45.10
16578;DHT22;8401;52.528;13.340;2022-11-21T01:23:52;0.80;17.60
16578;DHT22;8401;52.528;13.340;2022-11-21T01:26:21;0.70;29.30
16578;DHT22;8401;52.528;13.340;2022-11-21T01:28:47;0.70;36.40
16578;DHT22;8401;52.528;13.340;2022-11-21T01:31:21;0.70;42.60
16578;DHT22;8401;52.528;13.340;2022-11-21T01:33:48;0.70;38.90
16578;DHT22;8401;52.528;13.340;2022-11-21T01:36:16;0.50;45.40
16578;DHT22;8401;52.528;13.340;2022-11-21T01:38:47;0.50;62.20
16578;DHT22;8401;52.528;13.340;2022-11-21T01:41:16;0.50;82.40
16578;DHT22;8401;52.528;13.340;2022-11-21T01:43:42;1.00;55.50
16578;DHT22;8401;52.528;13.340;2022-11-21T01:51:33;0.90;21.80
16578;DHT22;8401;52.528;13.340;2022-11-21T02:02:01;0.60;84.50
16578;DHT22;8401;52.528;13.340;2022-11-21T02:04:30;0.60;87.20
16578;DHT22;8401;52.528;13.340;2022-11-21T02:07:00;0.50;85.80
16578;DHT22;8401;52.528;13.340;2022-11-21T02:09:29;0.60;91.80
16578;DHT22;8401;52.528;13.340;2022-11-21T02:12:03;0.50;84.70
16578;DHT22;8401;52.528;13.340;2022-11-21T02:14:30;0.60;85.60
16578;DHT22;8401;52.528;13.340;2022-11-21T02:16:59;0.60;73.80
16578;DHT22;8401;52.528;13.340;2022-11-21T02:19:39;0.80;78.90
16578;DHT22;8401;52.528;13.340;2022-11-21T02:22:17;0.80;48.10
16578;DHT22;8401;52.528;13.340;2022-11-21T02:25:02;1.30;20.00
16578;DHT22;8401;52.528;13.340;2022-11-21T02:27:28;1.40;1.00
16578;DHT22;8401;52.528;13.340;2022-11-21T02:29:54;1.10;1.00
16578;DHT22;8401;52.528;13.340;2022-11-21T02:32:31;1.30;1.00
16578;DHT22;8401;52.528;13.340;2022-11-21T02:34:57;1.40;1.00
16578;DHT22;8401;52.528;13.340;2022-11-21T02:37:22;1.30;1.00
16578;DHT22;8401;52.528;13.340;2022-11-21T02:39:48;1.10;1.00
16578;DHT22;8401;52.528;13.340;2022-11-21T02:42:25;0.90;23.40
16578;DHT22;8401;52.528;13.340;2022-11-21T02:47:37;0.70;52.60
16578;DHT22;8401;52.528;13.340;2022-11-21T02:50:18;0.60;75.40
16578;DHT22;8401;52.528;13.340;2022-11-21T02:52:44;0.60;65.50
16578;DHT22;8401;52.528;13.340;2022-11-21T02:55:10;0.50;78.00
16578;DHT22;8401;52.528;13.340;2022-11-21T02:57:40;0.60;55.80
16578;DHT22;8401;52.528;13.340;2022-11-21T03:00:07;0.80;63.50
16578;DHT22;8401;52.528;13.340;2022-11-21T03:02:33;0.70;48.70
16578;DHT22;8401;52.528;13.340;2022-11-21T03:04:58;0.60;72.70
16578;DHT22;8401;52.528;13.340;2022-11-21T03:07:24;0.80;85.90
16578;DHT22;8401;52.528;13.340;2022-11-21T03:09:49;0.70;49.10
16578;DHT22;8401;52.528;13.340;2022-11-21T03:12:15;0.70;70.00
16578;DHT22;8401;52.528;13.340;2022-11-21T03:14:41;0.60;62.80
16578;DHT22;8401;52.528;13.340;2022-11-21T03:17:06;0.60;75.70
16578;DHT22;8401;52.528;13.340;2022-11-21T03:19:32;0.60;85.70
16578;DHT22;8401;52.528;13.340;2022-11-21T03:21:57;0.60;75.80
16578;DHT22;8401;52.528;13.340;2022-11-21T03:24:23;0.60;77.90
16578;DHT22;8401;52.528;13.340;2022-11-21T03:26:49;0.60;79.70
16578;DHT22;8401;52.528;13.340;2022-11-21T03:29:14;0.70;90.10
16578;DHT22;8401;52.528;13.340;2022-11-21T03:31:40;0.70;82.50
16578;DHT22;8401;52.528;13.340;2022-11-21T03:34:06;0.70;92.60
16578;DHT22;8401;52.528;13.340;2022-11-21T03:36:31;0.90;93.30
16578;DHT22;8401;52.528;13.340;2022-11-21T03:38:57;0.90;59.60
16578;DHT22;8401;52.528;13.340;2022-11-21T03:41:24;0.80;62.30
16578;DHT22;8401;52.528;13.340;2022-11-21T03:44:00;0.70;88.50
16578;DHT22;8401;52.528;13.340;2022-11-21T03:46:27;0.60;84.20
16578;DHT22;8401;52.528;13.340;2022-11-21T03:48:53;0.60;91.40
16578;DHT22;8401;52.528;13.340;2022-11-21T03:51:20;0.70;95.00
16578;DHT22;8401;52.528;13.340;2022-11-21T03:53:46;0.70;95.10
16578;DHT22;8401;52.528;13.340;2022-11-21T03:56:11;0.70;93.80
16578;DHT22;8401;52.528;13.340;2022-11-21T03:58:37;0.70;93.50
16578;DHT22;8401;52.528;13.340;2022-11-21T04:01:03;0.70;97.10
16578;DHT22;8401;52.528;13.340;2022-11-21T04:03:29;0.70;97.90
16578;DHT22;8401;52.528;13.340;2022-11-21T04:05:55;0.70;99.60
16578;DHT22;8401;52.528;13.340;2022-11-21T04:08:21;0.70;98.40
16578;DHT22;8401;52.528;13.340;2022-11-21T04:10:47;0.70;99.90
16578;DHT22;8401;52.528;13.340;2022-11-21T04:13:13;0.70;99.90
16578;DHT22;8401;52.528;13.340;2022-11-21T04:15:43;0.70;99.10
16578;DHT22;8401;52.528;13.340;2022-11-21T04:18:09;0.70;99.20
16578;DHT22;8401;52.528;13.340;2022-11-21T04:20:34;0.90;99.90
16578;DHT22;8401;52.528;13.340;2022-11-21T04:23:00;1.10;84.70
16578;DHT22;8401;52.528;13.340;2022-11-21T04:25:26;1.00;58.60
16578;DHT22;8401;52.528;13.340;2022-11-21T04:27:55;1.00;62.10
16578;DHT22;8401;52.528;13.340;2022-11-21T04:30:21;0.90;65.90
16578;DHT22;8401;52.528;13.340;2022-11-21T04:32:46;0.90;65.30
16578;DHT22;8401;52.528;13.340;2022-11-21T04:35:14;0.90;47.20
16578;DHT22;8401;52.528;13.340;2022-11-21T04:37:40;1.00;47.50
16578;DHT22;8401;52.528;13.340;2022-11-21T04:40:06;0.90;56.90
16578;DHT22;8401;52.528;13.340;2022-11-21T04:42:31;0.90;48.70
16578;DHT22;8401;52.528;13.340;2022-11-21T04:44:57;0.80;69.00
16578;DHT22;8401;52.528;13.340;2022-11-21T04:47:22;0.90;54.00
16578;DHT22;8401;52.528;13.340;2022-11-21T04:49:48;0.80;74.10
16578;DHT22;8401;52.528;13.340;2022-11-21T04:52:14;0.70;78.60
16578;DHT22;8401;52.528;13.340;2022-11-21T04:54:39;0.60;89.50
16578;DHT22;8401;52.528;13.340;2022-11-21T04:57:05;0.70;93.50
16578;DHT22;8401;52.528;13.340;2022-11-21T04:59:30;0.70;93.70
16578;DHT22;8401;52.528;13.340;2022-11-21T05:01:56;0.60;93.90
16578;DHT22;8401;52.528;13.340;2022-11-21T05:04:21;0.70;94.40
16578;DHT22;8401;52.528;13.340;2022-11-21T05:06:47;0.60;98.00
16578;DHT22;8401;52.528;13.340;2022-11-21T05:09:13;0.70;98.80
16578;DHT22;8401;52.528;13.340;2022-11-21T05:11:38;0.70;96.50
16578;DHT22;8401;52.528;13.340;2022-11-21T05:14:22;0.70;97.50
16578;DHT22;8401;52.528;13.340;2022-11-21T05:16:51;0.60;93.60
16578;DHT22;8401;52.528;13.340;2022-11-21T05:19:16;0.60;98.60
16578;DHT22;8401;52.528;13.340;2022-11-21T05:21:42;0.70;99.90
16578;DHT22;8401;52.528;13.340;2022-11-21T05:24:08;0.70;99.90
16578;DHT22;8401;52.528;13.340;2022-11-21T05:26:33;0.70;99.90
16578;DHT22;8401;52.528;13.340;2022-11-21T05:28:59;0.70;99.90
16578;DHT22;8401;52.528;13.340;2022-11-21T05:31:25;0.70;99.90
16578;DHT22;8401;52.528;13.340;2022-11-21T05:33:50;0.70;99.90
16578;DHT22;8401;52.528;13.340;2022-11-21T05:36:16;0.70;99.90
16578;DHT22;8401;52.528;13.340;2022-11-21T05:38:42;0.60;99.90
16578;DHT22;8401;52.528;13.340;2022-11-21T05:41:08;0.60;99.90
16578;DHT22;8401;52.528;13.340;2022-11-21T05:43:34;0.60;99.90
16578;DHT22;8401;52.528;13.340;2022-11-21T05:46:13;0.70;99.90
16578;DHT22;8401;52.528;13.340;2022-11-21T05:48:39;0.70;99.90
16578;DHT22;8401;52.528;13.340;2022-11-21T05:51:05;0.70;99.90
16578;DHT22;8401;52.528;13.340;2022-11-21T05:53:31;0.70;99.90
16578;DHT22;8401;52.528;13.340;2022-11-21T05:56:05;0.60;99.90
16578;DHT22;8401;52.528;13.340;2022-11-21T05:58:31;0.60;99.90
16578;DHT22;8401;52.528;13.340;2022-11-21T06:00:57;0.60;99.90
16578;DHT22;8401;52.528;13.340;2022-11-21T06:03:24;0.60;99.90
16578;DHT22;8401;52.528;13.340;2022-11-21T06:06:09;0.60;99.90
16578;DHT22;8401;52.528;13.340;2022-11-21T06:08:42;0.50;99.90
16578;DHT22;8401;52.528;13.340;2022-11-21T06:11:10;0.50;99.90
16578;DHT22;8401;52.528;13.340;2022-11-21T06:13:36;0.50;99.90
16578;DHT22;8401;52.528;13.340;2022-11-21T06:16:05;0.50;99.90
16578;DHT22;8401;52.528;13.340;2022-11-21T06:18:36;0.60;99.90
16578;DHT22;8401;52.528;13.340;2022-11-21T06:21:04;0.50;99.90
16578;DHT22;8401;52.528;13.340;2022-11-21T06:23:30;0.50;99.90
16578;DHT22;8401;52.528;13.340;2022-11-21T06:25:57;0.50;99.90
16578;DHT22;8401;52.528;13.340;2022-11-21T06:28:25;0.50;99.90
16578;DHT22;8401;52.528;13.340;2022-11-21T06:30:50;0.50;99.90
16578;DHT22;8401;52.528;13.340;2022-11-21T06:33:17;0.50;99.90
16578;DHT22;8401;52.528;13.340;2022-11-21T06:35:43;0.50;99.90
16578;DHT22;8401;52.528;13.340;2022-11-21T06:38:09;0.50;99.90
16578;DHT22;8401;52.528;13.340;2022-11-21T06:40:37;0.50;99.90
16578;DHT22;8401;52.528;13.340;2022-11-21T06:43:02;0.50;99.90
16578;DHT22;8401;52.528;13.340;2022-11-21T06:45:28;0.40;99.90
16578;DHT22;8401;52.528;13.340;2022-11-21T06:47:54;0.40;99.90
16578;DHT22;8401;52.528;13.340;2022-11-21T06:50:19;0.40;99.90
16578;DHT22;8401;52.528;13.340;2022-11-21T06:52:45;0.40;99.90
16578;DHT22;8401;52.528;13.340;2022-11-21T06:55:11;0.40;99.90
16578;DHT22;8401;52.528;13.340;2022-11-21T06:57:37;0.30;99.90
16578;DHT22;8401;52.528;13.340;2022-11-21T07:00:04;0.30;99.90
16578;DHT22;8401;52.528;13.340;2022-11-21T07:02:30;0.30;99.90
16578;DHT22;8401;52.528;13.340;2022-11-21T07:04:55;0.30;99.90
16578;DHT22;8401;52.528;13.340;2022-11-21T07:07:21;0.20;99.90
16578;DHT22;8401;52.528;13.340;2022-11-21T07:09:46;0.20;99.90
16578;DHT22;8401;52.528;13.340;2022-11-21T07:12:12;0.10;99.90
16578;DHT22;8401;52.528;13.340;2022-11-21T07:14:57;0.10;99.90
16578;DHT22;8401;52.528;13.340;2022-11-21T07:17:22;0.20;99.90
16578;DHT22;8401;52.528;13.340;2022-11-21T07:19:48;0.20;99.90
16578;DHT22;8401;52.528;13.340;2022-11-21T07:22:13;0.10;99.90
16578;DHT22;8401;52.528;13.340;2022-11-21T07:24:39;0.10;99.90
16578;DHT22;8401;52.528;13.340;2022-11-21T07:27:05;0.10;99.90
16578;DHT22;8401;52.528;13.340;2022-11-21T07:29:30;0.00;99.90
16578;DHT22;8401;52.528;13.340;2022-11-21T07:31:56;0.00;99.90
16578;DHT22;8401;52.528;13.340;2022-11-21T07:34:22;0.00;99.90
16578;DHT22;8401;52.528;13.340;2022-11-21T07:36:47;0.00;99.90
16578;DHT22;8401;52.528;13.340;2022-11-21T07:39:13;0.10;99.90
16578;DHT22;8401;52.528;13.340;2022-11-21T07:41:38;0.00;99.90
16578;DHT22;8401;52.528;13.340;2022-11-21T07:44:04;0.10;99.90
16578;DHT22;8401;52.528;13.340;2022-11-21T07:46:30;0.10;99.90
16578;DHT22;8401;52.528;13.340;2022-11-21T07:48:55;0.10;99.90
16578;DHT22;8401;52.528;13.340;2022-11-21T07:51:21;0.10;99.90
16578;DHT22;8401;52.528;13.340;2022-11-21T07:53:46;0.00;99.90
16578;DHT22;8401;52.528;13.340;2022-11-21T07:56:12;0.00;99.90
16578;DHT22;8401;52.528;13.340;2022-11-21T07:58:38;0.10;99.90
16578;DHT22;8401;52.528;13.340;2022-11-21T08:01:05;0.10;99.90
16578;DHT22;8401;52.528;13.340;2022-11-21T08:03:32;0.20;99.90
16578;DHT22;8401;52.528;13.340;2022-11-21T08:06:00;0.00;99.90
16578;DHT22;8401;52.528;13.340;2022-11-21T08:08:26;0.10;99.90
16578;DHT22;8401;52.528;13.340;2022-11-21T08:10:51;-0.10;99.90
16578;DHT22;8401;52.528;13.340;2022-11-21T08:13:17;-0.10;99.90
16578;DHT22;8401;52.528;13.340;2022-11-21T08:15:43;-0.10;99.90
16578;DHT22;8401;52.528;13.340;2022-11-21T08:18:10;0.00;99.90
16578;DHT22;8401;52.528;13.340;2022-11-21T08:20:36;0.00;99.90
16578;DHT22;8401;52.528;13.340;2022-11-21T08:23:02;-0.10;99.90
16578;DHT22;8401;52.528;13.340;2022-11-21T08:25:28;-0.10;99.90
16578;DHT22;8401;52.528;13.340;2022-11-21T08:27:57;-0.10;99.90
16578;DHT22;8401;52.528;13.340;2022-11-21T08:30:23;-0.10;99.90
16578;DHT22;8401;52.528;13.340;2022-11-21T08:32:48;0.00;99.90
16578;DHT22;8401;52.528;13.340;2022-11-21T08:35:14;-0.10;99.90
16578;DHT22;8401;52.528;13.340;2022-11-21T08:37:40;-0.10;99.90
16578;DHT22;8401;52.528;13.340;2022-11-21T08:40:06;-0.10;99.90
16578;DHT22;8401;52.528;13.340;2022-11-21T08:42:32;-0.20;99.90
16578;DHT22;8401;52.528;13.340;2022-11-21T08:44:57;-0.20;99.90
16578;DHT22;8401;52.528;13.340;2022-11-21T08:47:23;-0.30;99.90
16578;DHT22;8401;52.528;13.340;2022-11-21T08:49:49;-0.30;99.90
16578;DHT22;8401;52.528;13.340;2022-11-21T08:52:15;-0.30;99.90
16578;DHT22;8401;52.528;13.340;2022-11-21T08:54:42;-0.20;99.90
16578;DHT22;8401;52.528;13.340;2022-11-21T08:57:09;-0.20;99.90
16578;DHT22;8401;52.528;13.340;2022-11-21T08:59:34;-0.30;99.90
16578;DHT22;8401;52.528;13.340;2022-11-21T09:02:00;-0.20;99.90
16578;DHT22;8401;52.528;13.340;2022-11-21T09:04:26;-0.30;99.90
16578;DHT22;8401;52.528;13.340;2022-11-21T09:06:52;-0.30;99.90
16578;DHT22;8401;52.528;13.340;2022-11-21T09:09:18;-0.50;99.90
16578;DHT22;8401;52.528;13.340;2022-11-21T09:11:43;-0.60;99.90
16578;DHT22;8401;52.528;13.340;2022-11-21T09:14:09;-0.70;99.90
16578;DHT22;8401;52.528;13.340;2022-11-21T09:16:53;-0.70;99.90
16578;DHT22;8401;52.528;13.340;2022-11-21T09:19:37;-0.80;99.90
16578;DHT22;8401;52.528;13.340;2022-11-21T09:22:03;-0.80;99.90
16578;DHT22;8401;52.528;13.340;2022-11-21T09:24:28;-0.80;99.90
16578;DHT22;8401;52.528;13.340;2022-11-21T09:26:54;-0.80;99.90
16578;DHT22;8401;52.528;13.340;2022-11-21T09:29:20;-0.80;99.90
16578;DHT22;8401;52.528;13.340;2022-11-21T09:31:45;-0.80;99.90
16578;DHT22;8401;52.528;13.340;2022-11-21T09:34:11;-0.70;99.90
16578;DHT22;8401;52.528;13.340;2022-11-21T09:36:37;-0.60;99.90
16578;DHT22;8401;52.528;13.340;2022-11-21T09:39:03;-0.50;99.90
16578;DHT22;8401;52.528;13.340;2022-11-21T09:47:23;-0.50;99.90
16578;DHT22;8401;52.528;13.340;2022-11-21T09:50:03;-0.40;99.90
16578;DHT22;8401;52.528;13.340;2022-11-21T09:52:49;-0.30;99.90
16578;DHT22;8401;52.528;13.340;2022-11-21T09:58:10;-0.40;99.90
16578;DHT22;8401;52.528;13.340;2022-11-21T10:00:39;-0.40;99.90
16578;DHT22;8401;52.528;13.340;2022-11-21T10:03:04;-0.50;99.90
16578;DHT22;8401;52.528;13.340;2022-11-21T10:06:03;-0.50;99.90
16578;DHT22;8401;52.528;13.340;2022-11-21T10:08:34;-0.50;99.90
16578;DHT22;8401;52.528;13.340;2022-11-21T10:11:25;-0.50;99.90
16578;DHT22;8401;52.528;13.340;2022-11-21T10:14:20;-0.40;99.90
16578;DHT22;8401;52.528;13.340;2022-11-21T10:16:59;-0.50;99.90
16578;DHT22;8401;52.528;13.340;2022-11-21T10:20:46;-0.30;99.90
16578;DHT22;8401;52.528;13.340;2022-11-21T10:22:48;-0.40;91.00
16578;DHT22;8401;52.528;13.340;2022-11-21T10:25:24;-0.40;95.90
16578;DHT22;8401;52.528;13.340;2022-11-21T10:28:02;-0.50;88.50
16578;DHT22;8401;52.528;13.340;2022-11-21T10:30:29;-0.60;82.80
16578;DHT22;8401;52.528;13.340;2022-11-21T10:32:59;-0.70;91.90
16578;DHT22;8401;52.528;13.340;2022-11-21T10:35:38;-0.60;99.80
16578;DHT22;8401;52.528;13.340;2022-11-21T10:38:25;-0.50;99.90
16578;DHT22;8401;52.528;13.340;2022-11-21T10:40:59;-0.50;93.70
16578;DHT22;8401;52.528;13.340;2022-11-21T10:44:00;-0.30;97.20
16578;DHT22;8401;52.528;13.340;2022-11-21T10:46:54;-0.30;84.30
16578;DHT22;8401;52.528;13.340;2022-11-21T10:49:20;-0.50;94.90
16578;DHT22;8401;52.528;13.340;2022-11-21T10:52:12;-0.50;99.00
16578;DHT22;8401;52.528;13.340;2022-11-21T10:55:03;-0.50;99.90
16578;DHT22;8401;52.528;13.340;2022-11-21T10:57:48;-0.30;98.30
16578;DHT22;8401;52.528;13.340;2022-11-21T11:00:16;-0.30;92.20
16578;DHT22;8401;52.528;13.340;2022-11-21T11:03:01;-0.50;93.60
16578;DHT22;8401;52.528;13.340;2022-11-21T11:05:37;-0.40;99.90
16578;DHT22;8401;52.528;13.340;2022-11-21T11:08:11;-0.40;99.90
16578;DHT22;8401;52.528;13.340;2022-11-21T11:10:45;-0.50;99.90
16578;DHT22;8401;52.528;13.340;2022-11-21T11:13:24;-0.50;99.90
16578;DHT22;8401;52.528;13.340;2022-11-21T11:18:59;-0.30;99.90
16578;DHT22;8401;52.528;13.340;2022-11-21T11:21:29;-0.20;99.90
16578;DHT22;8401;52.528;13.340;2022-11-21T11:24:20;-0.20;98.10
16578;DHT22;8401;52.528;13.340;2022-11-21T11:32:11;-0.20;73.80
16578;DHT22;8401;52.528;13.340;2022-11-21T11:34:38;-0.20;74.30
16578;DHT22;8401;52.528;13.340;2022-11-21T11:48:48;0.00;62.10
16578;DHT22;8401;52.528;13.340;2022-11-21T11:51:39;0.00;53.50
16578;DHT22;8401;52.528;13.340;2022-11-21T11:54:28;0.10;46.70
16578;DHT22;8401;52.528;13.340;2022-11-21T11:56:58;0.00;57.10
16578;DHT22;8401;52.528;13.340;2022-11-21T11:59:37;-0.10;50.40
16578;DHT22;8401;52.528;13.340;2022-11-21T12:04:49;-0.10;71.20
16578;DHT22;8401;52.528;13.340;2022-11-21T12:07:26;0.00;76.60
16578;DHT22;8401;52.528;13.340;2022-11-21T12:13:10;0.10;44.30
16578;DHT22;8401;52.528;13.340;2022-11-21T12:15:41;0.00;33.30
16578;DHT22;8401;52.528;13.340;2022-11-21T12:23:49;0.10;36.70
16578;DHT22;8401;52.528;13.340;2022-11-21T12:37:03;0.10;21.00
16578;DHT22;8401;52.528;13.340;2022-11-21T12:39:51;0.00;23.80
16578;DHT22;8401;52.528;13.340;2022-11-21T12:42:27;-0.20;42.50
16578;DHT22;8401;52.528;13.340;2022-11-21T12:53:55;0.10;36.30
16578;DHT22;8401;52.528;13.340;2022-11-21T12:57:11;0.10;22.80
16578;DHT22;8401;52.528;13.340;2022-11-21T13:00:05;0.00;30.00
16578;DHT22;8401;52.528;13.340;2022-11-21T13:05:30;0.30;36.70
16578;DHT22;8401;52.528;13.340;2022-11-21T13:08:05;0.20;22.40
16578;DHT22;8401;52.528;13.340;2022-11-21T13:10:32;0.30;13.80
16578;DHT22;8401;52.528;13.340;2022-11-21T13:16:07;0.20;5.50
16578;DHT22;8401;52.528;13.340;2022-11-21T13:18:46;0.10;88.20
16578;DHT22;8401;52.528;13.340;2022-11-21T13:24:06;0.10;79.30
16578;DHT22;8401;52.528;13.340;2022-11-21T13:29:09;0.20;73.30
16578;DHT22;8401;52.528;13.340;2022-11-21T13:31:35;0.10;54.70
16578;DHT22;8401;52.528;13.340;2022-11-21T13:34:08;0.10;68.80
16578;DHT22;8401;52.528;13.340;2022-11-21T13:36:50;0.30;89.50
16578;DHT22;8401;52.528;13.340;2022-11-21T13:47:03;0.20;78.10
16578;DHT22;8401;52.528;13.340;2022-11-21T13:52:01;0.00;58.40
16578;DHT22;8401;52.528;13.340;2022-11-21T13:54:34;0.10;62.00
16578;DHT22;8401;52.528;13.340;2022-11-21T14:08:19;0.70;26.90
16578;DHT22;8401;52.528;13.340;2022-11-21T14:10:46;0.40;10.20
16578;DHT22;8401;52.528;13.340;2022-11-21T14:18:45;0.80;50.90
16578;DHT22;8401;52.528;13.340;2022-11-21T14:21:24;0.90;8.20
16578;DHT22;8401;52.528;13.340;2022-11-21T14:23:54;0.90;1.00
16578;DHT22;8401;52.528;13.340;2022-11-21T14:26:21;1.20;1.00
16578;DHT22;8401;52.528;13.340;2022-11-21T14:28:50;1.20;1.00
16578;DHT22;8401;52.528;13.340;2022-11-21T14:31:16;1.30;1.00
16578;DHT22;8401;52.528;13.340;2022-11-21T14:33:43;1.00;1.00
16578;DHT22;8401;52.528;13.340;2022-11-21T14:41:21;0.70;1.00
16578;DHT22;8401;52.528;13.340;2022-11-21T14:46:27;0.90;1.00
16578;DHT22;8401;52.528;13.340;2022-11-21T14:48:54;0.90;1.00
16578;DHT22;8401;52.528;13.340;2022-11-21T14:51:23;0.90;1.00
16578;DHT22;8401;52.528;13.340;2022-11-21T14:53:51;0.90;1.00
16578;DHT22;8401;52.528;13.340;2022-11-21T14:56:31;1.00;1.00
16578;DHT22;8401;52.528;13.340;2022-11-21T14:59:00;1.00;1.00
16578;DHT22;8401;52.528;13.340;2022-11-21T15:01:32;1.00;1.00
16578;DHT22;8401;52.528;13.340;2022-11-21T15:04:00;1.00;1.00
16578;DHT22;8401;52.528;13.340;2022-11-21T15:06:28;0.80;1.00
16578;DHT22;8401;52.528;13.340;2022-11-21T15:09:00;1.10;1.00
16578;DHT22;8401;52.528;13.340;2022-11-21T15:11:37;1.10;1.00
16578;DHT22;8401;52.528;13.340;2022-11-21T15:16:41;1.00;1.00
16578;DHT22;8401;52.528;13.340;2022-11-21T15:19:10;0.90;1.00
16578;DHT22;8401;52.528;13.340;2022-11-21T15:21:36;0.80;1.00
16578;DHT22;8401;52.528;13.340;2022-11-21T15:24:27;0.80;1.00
16578;DHT22;8401;52.528;13.340;2022-11-21T15:26:54;0.70;1.00
16578;DHT22;8401;52.528;13.340;2022-11-21T15:29:20;0.80;1.00
16578;DHT22;8401;52.528;13.340;2022-11-21T15:32:05;0.70;1.00
16578;DHT22;8401;52.528;13.340;2022-11-21T15:34:30;0.60;1.00
16578;DHT22;8401;52.528;13.340;2022-11-21T15:37:14;0.60;1.00
16578;DHT22;8401;52.528;13.340;2022-11-21T15:39:44;0.60;1.00
16578;DHT22;8401;52.528;13.340;2022-11-21T15:45:01;0.60;1.00
16578;DHT22;8401;52.528;13.340;2022-11-21T15:47:27;0.60;1.00
16578;DHT22;8401;52.528;13.340;2022-11-21T15:49:53;0.50;1.00
16578;DHT22;8401;52.528;13.340;2022-11-21T15:52:19;0.40;2.80
16578;DHT22;8401;52.528;13.340;2022-11-21T15:54:45;0.30;9.70
16578;DHT22;8401;52.528;13.340;2022-11-21T15:57:10;0.30;24.30
16578;DHT22;8401;52.528;13.340;2022-11-21T15:59:36;0.30;22.20
16578;DHT22;8401;52.528;13.340;2022-11-21T16:02:02;0.40;24.90
16578;DHT22;8401;52.528;13.340;2022-11-21T16:04:28;0.40;18.30
16578;DHT22;8401;52.528;13.340;2022-11-21T16:06:54;0.40;12.10
16578;DHT22;8401;52.528;13.340;2022-11-21T16:09:20;0.40;20.30
16578;DHT22;8401;52.528;13.340;2022-11-21T16:11:46;0.60;23.30
16578;DHT22;8401;52.528;13.340;2022-11-21T16:14:13;0.60;14.50
16578;DHT22;8401;52.528;13.340;2022-11-21T16:16:41;0.60;17.10
16578;DHT22;8401;52.528;13.340;2022-11-21T16:19:12;0.70;12.50
16578;DHT22;8401;52.528;13.340;2022-11-21T16:21:38;0.70;2.60
16578;DHT22;8401;52.528;13.340;2022-11-21T16:24:04;0.70;1.00
16578;DHT22;8401;52.528;13.340;2022-11-21T16:26:30;0.60;11.00
16578;DHT22;8401;52.528;13.340;2022-11-21T16:28:58;0.70;35.30
16578;DHT22;8401;52.528;13.340;2022-11-21T16:31:29;0.80;16.40
16578;DHT22;8401;52.528;13.340;2022-11-21T16:33:55;0.90;1.00
16578;DHT22;8401;52.528;13.340;2022-11-21T16:36:29;0.80;1.00
16578;DHT22;8401;52.528;13.340;2022-11-21T16:38:54;0.80;1.00
16578;DHT22;8401;52.528;13.340;2022-11-21T16:41:22;0.80;1.00
16578;DHT22;8401;52.528;13.340;2022-11-21T16:43:51;0.70;1.00
16578;DHT22;8401;52.528;13.340;2022-11-21T16:46:18;0.80;1.00
16578;DHT22;8401;52.528;13.340;2022-11-21T16:48:44;0.90;1.00
16578;DHT22;8401;52.528;13.340;2022-11-21T16:51:15;0.90;1.00
16578;DHT22;8401;52.528;13.340;2022-11-21T16:53:41;0.90;1.00
16578;DHT22;8401;52.528;13.340;2022-11-21T16:56:08;0.70;1.00
16578;DHT22;8401;52.528;13.340;2022-11-21T16:58:38;0.60;1.00
16578;DHT22;8401;52.528;13.340;2022-11-21T17:01:18;0.60;1.00
16578;DHT22;8401;52.528;13.340;2022-11-21T17:03:45;0.30;21.70
16578;DHT22;8401;52.528;13.340;2022-11-21T17:06:13;0.40;34.60
16578;DHT22;8401;52.528;13.340;2022-11-21T17:08:39;0.50;10.90
16578;DHT22;8401;52.528;13.340;2022-11-21T17:11:12;0.60;4.40
16578;DHT22;8401;52.528;13.340;2022-11-21T17:13:38;0.50;11.60
16578;DHT22;8401;52.528;13.340;2022-11-21T17:16:05;0.60;1.70
16578;DHT22;8401;52.528;13.340;2022-11-21T17:18:32;0.50;8.00
16578;DHT22;8401;52.528;13.340;2022-11-21T17:20:57;0.50;1.00
16578;DHT22;8401;52.528;13.340;2022-11-21T17:23:23;0.30;5.70
16578;DHT22;8401;52.528;13.340;2022-11-21T17:25:49;0.40;30.10
16578;DHT22;8401;52.528;13.340;2022-11-21T17:28:14;0.40;16.00
16578;DHT22;8401;52.528;13.340;2022-11-21T17:30:40;0.50;2.60
16578;DHT22;8401;52.528;13.340;2022-11-21T17:33:09;0.50;1.00
16578;DHT22;8401;52.528;13.340;2022-11-21T17:35:35;0.50;1.00
16578;DHT22;8401;52.528;13.340;2022-11-21T17:38:00;0.50;9.90
16578;DHT22;8401;52.528;13.340;2022-11-21T17:40:26;0.40;17.20
16578;DHT22;8401;52.528;13.340;2022-11-21T17:42:52;0.30;15.00
16578;DHT22;8401;52.528;13.340;2022-11-21T17:45:17;0.30;42.90
16578;DHT22;8401;52.528;13.340;2022-11-21T17:47:43;0.40;23.70
16578;DHT22;8401;52.528;13.340;2022-11-21T17:50:11;0.40;10.60
16578;DHT22;8401;52.528;13.340;2022-11-21T17:52:37;0.30;13.30
16578;DHT22;8401;52.528;13.340;2022-11-21T17:55:04;0.20;28.10
16578;DHT22;8401;52.528;13.340;2022-11-21T17:57:30;0.40;27.30
16578;DHT22;8401;52.528;13.340;2022-11-21T17:59:55;0.40;14.00
16578;DHT22;8401;52.528;13.340;2022-11-21T18:02:21;0.40;12.50
16578;DHT22;8401;52.528;13.340;2022-11-21T18:04:47;0.40;9.80
16578;DHT22;8401;52.528;13.340;2022-11-21T18:07:13;0.40;6.70